sensor_id;sensor_type;location;lat;lon;timestamp;P1;durP1;ratioP1;P2;durP2;ratioP2
57846;SDS011;43675;50.030;21.952;2022-11-20T00:01:25;132.72;;;84.95;;
57846;SDS011;43675;50.030;21.952;2022-11-20T00:03:52;136.95;;;94.10;;
57846;SDS011;43675;50.030;21.952;2022-11-20T00:06:20;139.22;;;96.47;;
57846;SDS011;43675;50.030;21.952;2022-11-20T00:08:46;137.12;;;94.72;;
57846;SDS011;43675;50.030;21.952;2022-11-20T00:11:13;150.80;;;101.47;;
57846;SDS011;43675;50.030;21.952;2022-11-20T00:13:41;136.65;;;99.67;;
57846;SDS011;43675;50.030;21.952;2022-11-20T00:16:08;135.22;;;95.42;;
57846;SDS011;43675;50.030;21.952;2022-11-20T00:18:35;135.57;;;97.20;;
57846;SDS011;43675;50.030;21.952;2022-11-20T00:21:05;131.78;;;93.50;;
57846;SDS011;43675;50.030;21.952;2022-11-20T00:23:33;138.20;;;95.10;;
57846;SDS011;43675;50.030;21.952;2022-11-20T00:26:03;134.32;;;94.90;;
57846;SDS011;43675;50.030;21.952;2022-11-20T00:28:30;132.55;;;92.95;;
57846;SDS011;43675;50.030;21.952;2022-11-20T00:31:07;132.97;;;94.22;;
57846;SDS011;43675;50.030;21.952;2022-11-20T00:33:37;126.50;;;75.10;;
57846;SDS011;43675;50.030;21.952;2022-11-20T00:36:04;120.75;;;72.97;;
57846;SDS011;43675;50.030;21.952;2022-11-20T00:41:04;127.62;;;77.72;;
57846;SDS011;43675;50.030;21.952;2022-11-20T00:43:31;132.20;;;77.30;;
57846;SDS011;43675;50.030;21.952;2022-11-20T00:48:33;130.63;;;78.78;;
57846;SDS011;43675;50.030;21.952;2022-11-20T00:50:59;131.90;;;80.87;;
57846;SDS011;43675;50.030;21.952;2022-11-20T00:53:25;134.65;;;80.97;;
57846;SDS011;43675;50.030;21.952;2022-11-20T00:55:58;127.92;;;78.37;;
57846;SDS011;43675;50.030;21.952;2022-11-20T00:58:28;129.42;;;78.97;;
57846;SDS011;43675;50.030;21.952;2022-11-20T01:00:59;127.60;;;79.65;;
57846;SDS011;43675;50.030;21.952;2022-11-20T01:03:27;132.27;;;78.90;;
57846;SDS011;43675;50.030;21.952;2022-11-20T01:05:58;130.70;;;78.78;;
57846;SDS011;43675;50.030;21.952;2022-11-20T01:08:32;122.10;;;75.17;;
57846;SDS011;43675;50.030;21.952;2022-11-20T01:10:59;126.27;;;76.80;;
57846;SDS011;43675;50.030;21.952;2022-11-20T01:13:26;124.02;;;75.32;;
57846;SDS011;43675;50.030;21.952;2022-11-20T01:15:52;119.85;;;76.42;;
57846;SDS011;43675;50.030;21.952;2022-11-20T01:18:18;120.05;;;77.75;;
57846;SDS011;43675;50.030;21.952;2022-11-20T01:20:43;121.95;;;78.20;;
57846;SDS011;43675;50.030;21.952;2022-11-20T01:23:09;121.90;;;79.50;;
57846;SDS011;43675;50.030;21.952;2022-11-20T01:25:35;125.35;;;77.32;;
57846;SDS011;43675;50.030;21.952;2022-11-20T01:28:00;127.65;;;79.60;;
57846;SDS011;43675;50.030;21.952;2022-11-20T01:30:26;120.70;;;79.45;;
57846;SDS011;43675;50.030;21.952;2022-11-20T01:32:58;117.30;;;77.65;;
57846;SDS011;43675;50.030;21.952;2022-11-20T01:35:24;122.02;;;78.65;;
57846;SDS011;43675;50.030;21.952;2022-11-20T01:37:49;119.05;;;77.17;;
57846;SDS011;43675;50.030;21.952;2022-11-20T01:40:15;118.75;;;77.25;;
57846;SDS011;43675;50.030;21.952;2022-11-20T01:42:45;114.35;;;76.55;;
57846;SDS011;43675;50.030;21.952;2022-11-20T01:48:25;116.15;;;77.15;;
57846;SDS011;43675;50.030;21.952;2022-11-20T01:51:00;109.03;;;74.85;;
57846;SDS011;43675;50.030;21.952;2022-11-20T01:53:29;110.32;;;73.30;;
57846;SDS011;43675;50.030;21.952;2022-11-20T01:56:05;116.47;;;74.50;;
57846;SDS011;43675;50.030;21.952;2022-11-20T01:58:33;113.20;;;73.22;;
57846;SDS011;43675;50.030;21.952;2022-11-20T02:01:02;116.67;;;74.75;;
57846;SDS011;43675;50.030;21.952;2022-11-20T02:03:29;114.15;;;73.15;;
57846;SDS011;43675;50.030;21.952;2022-11-20T02:06:04;113.92;;;71.95;;
57846;SDS011;43675;50.030;21.952;2022-11-20T02:08:31;116.33;;;72.62;;
57846;SDS011;43675;50.030;21.952;2022-11-20T02:10:58;115.95;;;75.00;;
57846;SDS011;43675;50.030;21.952;2022-11-20T02:13:23;113.75;;;73.97;;
57846;SDS011;43675;50.030;21.952;2022-11-20T02:15:49;115.25;;;73.80;;
57846;SDS011;43675;50.030;21.952;2022-11-20T02:18:16;115.57;;;75.47;;
57846;SDS011;43675;50.030;21.952;2022-11-20T02:20:45;113.52;;;71.72;;
57846;SDS011;43675;50.030;21.952;2022-11-20T02:23:14;113.05;;;73.87;;
57846;SDS011;43675;50.030;21.952;2022-11-20T02:25:47;112.30;;;69.95;;
57846;SDS011;43675;50.030;21.952;2022-11-20T02:28:15;109.17;;;68.85;;
57846;SDS011;43675;50.030;21.952;2022-11-20T02:30:42;109.85;;;70.10;;
57846;SDS011;43675;50.030;21.952;2022-11-20T02:33:07;115.03;;;73.15;;
57846;SDS011;43675;50.030;21.952;2022-11-20T02:35:41;105.30;;;71.37;;
57846;SDS011;43675;50.030;21.952;2022-11-20T02:38:11;114.70;;;74.60;;
57846;SDS011;43675;50.030;21.952;2022-11-20T02:40:38;122.25;;;80.17;;
57846;SDS011;43675;50.030;21.952;2022-11-20T02:43:03;125.72;;;78.87;;
57846;SDS011;43675;50.030;21.952;2022-11-20T02:45:29;125.22;;;77.95;;
57846;SDS011;43675;50.030;21.952;2022-11-20T02:47:55;122.50;;;75.32;;
57846;SDS011;43675;50.030;21.952;2022-11-20T02:50:21;117.33;;;75.95;;
57846;SDS011;43675;50.030;21.952;2022-11-20T02:52:46;114.05;;;74.20;;
57846;SDS011;43675;50.030;21.952;2022-11-20T02:55:18;113.80;;;76.35;;
57846;SDS011;43675;50.030;21.952;2022-11-20T02:57:51;113.30;;;74.92;;
57846;SDS011;43675;50.030;21.952;2022-11-20T03:00:16;113.77;;;73.47;;
57846;SDS011;43675;50.030;21.952;2022-11-20T03:02:42;111.50;;;79.15;;
57846;SDS011;43675;50.030;21.952;2022-11-20T03:05:08;109.78;;;78.57;;
57846;SDS011;43675;50.030;21.952;2022-11-20T03:07:33;113.40;;;83.07;;
57846;SDS011;43675;50.030;21.952;2022-11-20T03:09:59;119.28;;;84.03;;
57846;SDS011;43675;50.030;21.952;2022-11-20T03:12:25;120.40;;;82.62;;
57846;SDS011;43675;50.030;21.952;2022-11-20T03:14:50;116.40;;;81.65;;
57846;SDS011;43675;50.030;21.952;2022-11-20T03:17:16;107.95;;;78.10;;
57846;SDS011;43675;50.030;21.952;2022-11-20T03:19:42;109.50;;;82.17;;
57846;SDS011;43675;50.030;21.952;2022-11-20T03:22:14;110.57;;;84.22;;
57846;SDS011;43675;50.030;21.952;2022-11-20T03:24:40;111.00;;;82.75;;
57846;SDS011;43675;50.030;21.952;2022-11-20T03:27:06;118.77;;;86.10;;
57846;SDS011;43675;50.030;21.952;2022-11-20T03:29:31;121.47;;;87.02;;
57846;SDS011;43675;50.030;21.952;2022-11-20T03:31:57;120.45;;;88.85;;
57846;SDS011;43675;50.030;21.952;2022-11-20T03:34:23;120.30;;;85.92;;
57846;SDS011;43675;50.030;21.952;2022-11-20T03:36:49;121.37;;;88.17;;
57846;SDS011;43675;50.030;21.952;2022-11-20T03:39:14;117.55;;;86.12;;
57846;SDS011;43675;50.030;21.952;2022-11-20T03:41:40;116.25;;;82.75;;
57846;SDS011;43675;50.030;21.952;2022-11-20T03:44:07;107.32;;;82.50;;
57846;SDS011;43675;50.030;21.952;2022-11-20T03:46:35;113.70;;;81.92;;
57846;SDS011;43675;50.030;21.952;2022-11-20T03:49:01;111.15;;;83.47;;
57846;SDS011;43675;50.030;21.952;2022-11-20T03:51:32;115.03;;;84.40;;
57846;SDS011;43675;50.030;21.952;2022-11-20T03:54:00;115.85;;;83.22;;
57846;SDS011;43675;50.030;21.952;2022-11-20T03:56:29;110.70;;;79.62;;
57846;SDS011;43675;50.030;21.952;2022-11-20T03:59:02;109.32;;;80.42;;
57846;SDS011;43675;50.030;21.952;2022-11-20T04:01:30;110.72;;;80.00;;
57846;SDS011;43675;50.030;21.952;2022-11-20T04:03:57;108.83;;;79.92;;
57846;SDS011;43675;50.030;21.952;2022-11-20T04:06:25;110.05;;;81.08;;
57846;SDS011;43675;50.030;21.952;2022-11-20T04:09:02;117.87;;;83.70;;
57846;SDS011;43675;50.030;21.952;2022-11-20T04:11:29;116.70;;;83.70;;
57846;SDS011;43675;50.030;21.952;2022-11-20T04:13:57;106.63;;;80.70;;
57846;SDS011;43675;50.030;21.952;2022-11-20T04:16:25;116.15;;;84.15;;
57846;SDS011;43675;50.030;21.952;2022-11-20T04:18:54;117.08;;;85.30;;
57846;SDS011;43675;50.030;21.952;2022-11-20T04:21:21;111.88;;;82.75;;
57846;SDS011;43675;50.030;21.952;2022-11-20T04:23:48;113.15;;;81.50;;
57846;SDS011;43675;50.030;21.952;2022-11-20T04:26:14;112.47;;;83.90;;
57846;SDS011;43675;50.030;21.952;2022-11-20T04:28:40;112.42;;;82.35;;
57846;SDS011;43675;50.030;21.952;2022-11-20T04:31:13;107.95;;;82.25;;
57846;SDS011;43675;50.030;21.952;2022-11-20T04:33:40;115.72;;;85.57;;
57846;SDS011;43675;50.030;21.952;2022-11-20T04:36:13;114.35;;;83.33;;
57846;SDS011;43675;50.030;21.952;2022-11-20T04:38:41;115.32;;;86.28;;
57846;SDS011;43675;50.030;21.952;2022-11-20T04:41:09;109.48;;;79.50;;
57846;SDS011;43675;50.030;21.952;2022-11-20T04:43:37;104.00;;;80.30;;
57846;SDS011;43675;50.030;21.952;2022-11-20T04:46:03;120.37;;;86.42;;
57846;SDS011;43675;50.030;21.952;2022-11-20T04:48:29;120.22;;;85.50;;
57846;SDS011;43675;50.030;21.952;2022-11-20T04:50:55;112.10;;;81.25;;
57846;SDS011;43675;50.030;21.952;2022-11-20T04:53:22;105.32;;;79.87;;
57846;SDS011;43675;50.030;21.952;2022-11-20T04:55:48;98.58;;;79.77;;
57846;SDS011;43675;50.030;21.952;2022-11-20T04:58:14;98.95;;;78.30;;
57846;SDS011;43675;50.030;21.952;2022-11-20T05:00:47;99.28;;;76.95;;
57846;SDS011;43675;50.030;21.952;2022-11-20T05:03:20;101.07;;;78.22;;
57846;SDS011;43675;50.030;21.952;2022-11-20T05:05:45;98.45;;;78.62;;
57846;SDS011;43675;50.030;21.952;2022-11-20T05:08:11;108.92;;;77.90;;
57846;SDS011;43675;50.030;21.952;2022-11-20T05:10:37;105.70;;;79.40;;
57846;SDS011;43675;50.030;21.952;2022-11-20T05:13:02;104.38;;;78.85;;
57846;SDS011;43675;50.030;21.952;2022-11-20T05:15:28;114.72;;;81.42;;
57846;SDS011;43675;50.030;21.952;2022-11-20T05:17:53;136.40;;;95.05;;
57846;SDS011;43675;50.030;21.952;2022-11-20T05:20:25;128.60;;;90.12;;
57846;SDS011;43675;50.030;21.952;2022-11-20T05:22:51;131.55;;;91.35;;
57846;SDS011;43675;50.030;21.952;2022-11-20T05:25:17;133.72;;;90.05;;
57846;SDS011;43675;50.030;21.952;2022-11-20T05:27:42;134.03;;;93.03;;
57846;SDS011;43675;50.030;21.952;2022-11-20T05:30:09;138.62;;;92.02;;
57846;SDS011;43675;50.030;21.952;2022-11-20T05:32:35;143.72;;;96.05;;
57846;SDS011;43675;50.030;21.952;2022-11-20T05:35:01;164.50;;;101.22;;
57846;SDS011;43675;50.030;21.952;2022-11-20T05:37:26;169.05;;;97.53;;
57846;SDS011;43675;50.030;21.952;2022-11-20T05:39:59;149.12;;;88.50;;
57846;SDS011;43675;50.030;21.952;2022-11-20T05:42:24;176.65;;;96.35;;
57846;SDS011;43675;50.030;21.952;2022-11-20T05:44:50;158.45;;;93.92;;
57846;SDS011;43675;50.030;21.952;2022-11-20T05:47:16;151.10;;;95.77;;
57846;SDS011;43675;50.030;21.952;2022-11-20T05:49:41;149.70;;;94.72;;
57846;SDS011;43675;50.030;21.952;2022-11-20T05:52:07;142.75;;;94.92;;
57846;SDS011;43675;50.030;21.952;2022-11-20T05:54:33;130.78;;;91.82;;
57846;SDS011;43675;50.030;21.952;2022-11-20T05:56:58;145.80;;;99.00;;
57846;SDS011;43675;50.030;21.952;2022-11-20T05:59:31;129.38;;;92.40;;
57846;SDS011;43675;50.030;21.952;2022-11-20T06:01:57;132.15;;;91.92;;
57846;SDS011;43675;50.030;21.952;2022-11-20T06:04:23;126.87;;;94.92;;
57846;SDS011;43675;50.030;21.952;2022-11-20T06:06:56;129.27;;;92.05;;
57846;SDS011;43675;50.030;21.952;2022-11-20T06:09:21;131.67;;;97.12;;
57846;SDS011;43675;50.030;21.952;2022-11-20T06:11:54;129.45;;;91.97;;
57846;SDS011;43675;50.030;21.952;2022-11-20T06:14:19;133.18;;;95.67;;
57846;SDS011;43675;50.030;21.952;2022-11-20T06:16:45;122.90;;;93.05;;
57846;SDS011;43675;50.030;21.952;2022-11-20T06:19:11;128.62;;;94.80;;
57846;SDS011;43675;50.030;21.952;2022-11-20T06:21:36;131.52;;;94.10;;
57846;SDS011;43675;50.030;21.952;2022-11-20T06:24:02;127.12;;;92.47;;
57846;SDS011;43675;50.030;21.952;2022-11-20T06:26:28;115.70;;;90.30;;
57846;SDS011;43675;50.030;21.952;2022-11-20T06:28:56;127.92;;;90.87;;
57846;SDS011;43675;50.030;21.952;2022-11-20T06:31:22;124.62;;;91.87;;
57846;SDS011;43675;50.030;21.952;2022-11-20T06:33:50;118.30;;;85.28;;
57846;SDS011;43675;50.030;21.952;2022-11-20T06:36:17;103.70;;;80.90;;
57846;SDS011;43675;50.030;21.952;2022-11-20T06:38:44;111.77;;;86.25;;
57846;SDS011;43675;50.030;21.952;2022-11-20T06:41:16;113.88;;;85.83;;
57846;SDS011;43675;50.030;21.952;2022-11-20T06:43:40;117.75;;;88.05;;
57846;SDS011;43675;50.030;21.952;2022-11-20T06:46:06;112.60;;;84.60;;
57846;SDS011;43675;50.030;21.952;2022-11-20T06:48:32;109.03;;;86.53;;
57846;SDS011;43675;50.030;21.952;2022-11-20T06:50:58;116.82;;;86.35;;
57846;SDS011;43675;50.030;21.952;2022-11-20T06:53:24;114.15;;;82.42;;
57846;SDS011;43675;50.030;21.952;2022-11-20T06:55:50;118.75;;;87.10;;
57846;SDS011;43675;50.030;21.952;2022-11-20T06:58:17;129.42;;;91.45;;
57846;SDS011;43675;50.030;21.952;2022-11-20T07:00:49;125.70;;;93.15;;
57846;SDS011;43675;50.030;21.952;2022-11-20T07:03:15;128.85;;;96.60;;
57846;SDS011;43675;50.030;21.952;2022-11-20T07:05:47;128.02;;;82.27;;
57846;SDS011;43675;50.030;21.952;2022-11-20T07:08:19;128.72;;;79.65;;
57846;SDS011;43675;50.030;21.952;2022-11-20T07:10:45;123.75;;;86.37;;
57846;SDS011;43675;50.030;21.952;2022-11-20T07:13:10;126.40;;;84.30;;
57846;SDS011;43675;50.030;21.952;2022-11-20T07:15:43;120.50;;;80.53;;
57846;SDS011;43675;50.030;21.952;2022-11-20T07:18:09;118.77;;;76.65;;
57846;SDS011;43675;50.030;21.952;2022-11-20T07:20:34;109.20;;;65.47;;
57846;SDS011;43675;50.030;21.952;2022-11-20T07:23:00;111.45;;;68.85;;
57846;SDS011;43675;50.030;21.952;2022-11-20T07:25:26;115.97;;;72.10;;
57846;SDS011;43675;50.030;21.952;2022-11-20T07:27:56;120.75;;;69.30;;
57846;SDS011;43675;50.030;21.952;2022-11-20T07:30:24;123.60;;;72.97;;
57846;SDS011;43675;50.030;21.952;2022-11-20T07:32:56;160.45;;;98.52;;
57846;SDS011;43675;50.030;21.952;2022-11-20T07:35:22;189.03;;;110.78;;
57846;SDS011;43675;50.030;21.952;2022-11-20T07:37:49;182.37;;;107.87;;
57846;SDS011;43675;50.030;21.952;2022-11-20T07:40:19;170.28;;;104.65;;
57846;SDS011;43675;50.030;21.952;2022-11-20T07:42:50;165.70;;;99.80;;
57846;SDS011;43675;50.030;21.952;2022-11-20T07:45:17;172.10;;;101.10;;
57846;SDS011;43675;50.030;21.952;2022-11-20T07:47:44;171.18;;;96.80;;
57846;SDS011;43675;50.030;21.952;2022-11-20T07:50:10;171.47;;;110.03;;
57846;SDS011;43675;50.030;21.952;2022-11-20T07:52:36;162.25;;;104.38;;
57846;SDS011;43675;50.030;21.952;2022-11-20T07:55:01;155.52;;;101.97;;
57846;SDS011;43675;50.030;21.952;2022-11-20T07:57:27;154.95;;;98.40;;
57846;SDS011;43675;50.030;21.952;2022-11-20T07:59:52;137.60;;;81.70;;
57846;SDS011;43675;50.030;21.952;2022-11-20T08:02:18;131.00;;;80.65;;
57846;SDS011;43675;50.030;21.952;2022-11-20T08:04:44;123.28;;;75.97;;
57846;SDS011;43675;50.030;21.952;2022-11-20T08:07:19;125.38;;;76.37;;
57846;SDS011;43675;50.030;21.952;2022-11-20T08:09:51;125.18;;;80.15;;
57846;SDS011;43675;50.030;21.952;2022-11-20T08:12:20;126.65;;;80.05;;
57846;SDS011;43675;50.030;21.952;2022-11-20T08:14:46;123.13;;;78.05;;
57846;SDS011;43675;50.030;21.952;2022-11-20T08:17:12;123.95;;;78.87;;
57846;SDS011;43675;50.030;21.952;2022-11-20T08:19:37;128.60;;;78.70;;
57846;SDS011;43675;50.030;21.952;2022-11-20T08:22:03;121.80;;;74.75;;
57846;SDS011;43675;50.030;21.952;2022-11-20T08:24:28;123.60;;;78.65;;
57846;SDS011;43675;50.030;21.952;2022-11-20T08:26:56;119.53;;;76.70;;
57846;SDS011;43675;50.030;21.952;2022-11-20T08:29:28;119.97;;;74.58;;
57846;SDS011;43675;50.030;21.952;2022-11-20T08:32:00;119.40;;;73.75;;
57846;SDS011;43675;50.030;21.952;2022-11-20T08:34:28;118.42;;;73.70;;
57846;SDS011;43675;50.030;21.952;2022-11-20T08:36:54;123.07;;;76.65;;
57846;SDS011;43675;50.030;21.952;2022-11-20T08:39:19;128.27;;;84.77;;
57846;SDS011;43675;50.030;21.952;2022-11-20T08:41:45;128.35;;;82.47;;
57846;SDS011;43675;50.030;21.952;2022-11-20T08:44:11;132.32;;;81.82;;
57846;SDS011;43675;50.030;21.952;2022-11-20T08:46:38;110.55;;;73.02;;
57846;SDS011;43675;50.030;21.952;2022-11-20T08:49:05;108.75;;;71.77;;
57846;SDS011;43675;50.030;21.952;2022-11-20T08:51:32;99.45;;;68.02;;
57846;SDS011;43675;50.030;21.952;2022-11-20T08:53:58;104.47;;;68.40;;
57846;SDS011;43675;50.030;21.952;2022-11-20T08:56:24;97.37;;;66.37;;
57846;SDS011;43675;50.030;21.952;2022-11-20T08:58:57;95.17;;;67.60;;
57846;SDS011;43675;50.030;21.952;2022-11-20T09:01:23;151.70;;;79.67;;
57846;SDS011;43675;50.030;21.952;2022-11-20T09:03:49;95.38;;;64.10;;
57846;SDS011;43675;50.030;21.952;2022-11-20T09:06:21;136.37;;;95.77;;
57846;SDS011;43675;50.030;21.952;2022-11-20T09:08:47;107.07;;;69.97;;
57846;SDS011;43675;50.030;21.952;2022-11-20T09:11:18;87.80;;;60.63;;
57846;SDS011;43675;50.030;21.952;2022-11-20T09:13:44;92.02;;;60.08;;
57846;SDS011;43675;50.030;21.952;2022-11-20T09:16:16;99.05;;;58.45;;
57846;SDS011;43675;50.030;21.952;2022-11-20T09:18:41;79.50;;;54.15;;
57846;SDS011;43675;50.030;21.952;2022-11-20T09:21:11;84.17;;;55.92;;
57846;SDS011;43675;50.030;21.952;2022-11-20T09:23:38;106.25;;;71.10;;
57846;SDS011;43675;50.030;21.952;2022-11-20T09:26:04;126.38;;;76.60;;
57846;SDS011;43675;50.030;21.952;2022-11-20T09:28:31;215.32;;;106.35;;
57846;SDS011;43675;50.030;21.952;2022-11-20T09:30:58;122.17;;;74.58;;
57846;SDS011;43675;50.030;21.952;2022-11-20T09:33:24;105.22;;;72.05;;
57846;SDS011;43675;50.030;21.952;2022-11-20T09:35:50;101.55;;;67.95;;
57846;SDS011;43675;50.030;21.952;2022-11-20T09:38:15;108.78;;;71.10;;
57846;SDS011;43675;50.030;21.952;2022-11-20T09:40:45;94.65;;;61.85;;
57846;SDS011;43675;50.030;21.952;2022-11-20T09:43:28;84.65;;;54.63;;
57846;SDS011;43675;50.030;21.952;2022-11-20T09:46:04;86.28;;;56.37;;
57846;SDS011;43675;50.030;21.952;2022-11-20T09:48:42;80.67;;;52.53;;
57846;SDS011;43675;50.030;21.952;2022-11-20T09:56:19;73.05;;;48.23;;
57846;SDS011;43675;50.030;21.952;2022-11-20T09:58:47;74.47;;;49.42;;
57846;SDS011;43675;50.030;21.952;2022-11-20T10:01:33;71.95;;;47.98;;
57846;SDS011;43675;50.030;21.952;2022-11-20T10:04:15;69.95;;;48.05;;
57846;SDS011;43675;50.030;21.952;2022-11-20T10:06:47;64.87;;;45.15;;
57846;SDS011;43675;50.030;21.952;2022-11-20T10:09:34;69.62;;;46.80;;
57846;SDS011;43675;50.030;21.952;2022-11-20T10:17:33;85.47;;;53.42;;
57846;SDS011;43675;50.030;21.952;2022-11-20T10:20:18;82.90;;;53.30;;
57846;SDS011;43675;50.030;21.952;2022-11-20T10:22:52;83.87;;;54.00;;
57846;SDS011;43675;50.030;21.952;2022-11-20T10:28:29;94.25;;;58.80;;
57846;SDS011;43675;50.030;21.952;2022-11-20T10:31:03;91.80;;;58.83;;
57846;SDS011;43675;50.030;21.952;2022-11-20T10:33:32;98.80;;;59.58;;
57846;SDS011;43675;50.030;21.952;2022-11-20T10:38:50;108.63;;;68.07;;
57846;SDS011;43675;50.030;21.952;2022-11-20T10:41:22;109.10;;;67.22;;
57846;SDS011;43675;50.030;21.952;2022-11-20T10:44:05;112.35;;;64.90;;
57846;SDS011;43675;50.030;21.952;2022-11-20T10:46:45;104.70;;;65.15;;
57846;SDS011;43675;50.030;21.952;2022-11-20T10:49:14;110.42;;;69.05;;
57846;SDS011;43675;50.030;21.952;2022-11-20T10:57:17;112.35;;;71.40;;
57846;SDS011;43675;50.030;21.952;2022-11-20T11:00:05;113.97;;;72.55;;
57846;SDS011;43675;50.030;21.952;2022-11-20T11:02:35;114.03;;;71.33;;
57846;SDS011;43675;50.030;21.952;2022-11-20T11:05:14;121.35;;;74.42;;
57846;SDS011;43675;50.030;21.952;2022-11-20T11:07:50;125.18;;;77.00;;
57846;SDS011;43675;50.030;21.952;2022-11-20T11:13:02;125.38;;;77.05;;
57846;SDS011;43675;50.030;21.952;2022-11-20T11:15:38;136.85;;;77.75;;
57846;SDS011;43675;50.030;21.952;2022-11-20T11:18:08;112.55;;;69.85;;
57846;SDS011;43675;50.030;21.952;2022-11-20T11:20:34;104.25;;;66.95;;
57846;SDS011;43675;50.030;21.952;2022-11-20T11:22:59;105.15;;;69.90;;
57846;SDS011;43675;50.030;21.952;2022-11-20T11:27:58;106.58;;;70.92;;
57846;SDS011;43675;50.030;21.952;2022-11-20T11:30:27;100.87;;;71.55;;
57846;SDS011;43675;50.030;21.952;2022-11-20T11:33:04;107.83;;;72.70;;
57846;SDS011;43675;50.030;21.952;2022-11-20T11:35:31;103.60;;;69.00;;
57846;SDS011;43675;50.030;21.952;2022-11-20T11:38:02;94.20;;;61.70;;
57846;SDS011;43675;50.030;21.952;2022-11-20T11:40:31;100.87;;;65.78;;
57846;SDS011;43675;50.030;21.952;2022-11-20T11:43:01;104.20;;;66.22;;
57846;SDS011;43675;50.030;21.952;2022-11-20T11:45:29;97.57;;;65.05;;
57846;SDS011;43675;50.030;21.952;2022-11-20T11:47:56;85.20;;;55.35;;
57846;SDS011;43675;50.030;21.952;2022-11-20T11:50:28;88.20;;;58.87;;
57846;SDS011;43675;50.030;21.952;2022-11-20T11:53:09;88.95;;;58.60;;
57846;SDS011;43675;50.030;21.952;2022-11-20T12:04:14;93.80;;;60.25;;
57846;SDS011;43675;50.030;21.952;2022-11-20T12:06:53;93.10;;;61.98;;
57846;SDS011;43675;50.030;21.952;2022-11-20T12:09:21;93.50;;;58.55;;
57846;SDS011;43675;50.030;21.952;2022-11-20T12:14:43;85.10;;;57.17;;
57846;SDS011;43675;50.030;21.952;2022-11-20T12:17:12;86.72;;;56.30;;
57846;SDS011;43675;50.030;21.952;2022-11-20T12:19:39;89.25;;;57.35;;
57846;SDS011;43675;50.030;21.952;2022-11-20T12:24:45;87.08;;;55.88;;
57846;SDS011;43675;50.030;21.952;2022-11-20T12:30:09;78.78;;;51.33;;
57846;SDS011;43675;50.030;21.952;2022-11-20T12:43:21;80.57;;;54.10;;
57846;SDS011;43675;50.030;21.952;2022-11-20T12:48:41;90.03;;;59.83;;
57846;SDS011;43675;50.030;21.952;2022-11-20T12:51:26;91.42;;;59.20;;
57846;SDS011;43675;50.030;21.952;2022-11-20T12:54:06;86.42;;;58.02;;
57846;SDS011;43675;50.030;21.952;2022-11-20T12:56:48;84.72;;;58.23;;
57846;SDS011;43675;50.030;21.952;2022-11-20T13:01:52;86.67;;;57.93;;
57846;SDS011;43675;50.030;21.952;2022-11-20T13:07:30;97.57;;;66.95;;
57846;SDS011;43675;50.030;21.952;2022-11-20T13:09:58;102.02;;;65.47;;
57846;SDS011;43675;50.030;21.952;2022-11-20T13:12:44;112.40;;;71.77;;
57846;SDS011;43675;50.030;21.952;2022-11-20T13:15:18;112.15;;;70.35;;
57846;SDS011;43675;50.030;21.952;2022-11-20T13:17:59;114.05;;;71.17;;
57846;SDS011;43675;50.030;21.952;2022-11-20T13:20:28;113.32;;;68.92;;
57846;SDS011;43675;50.030;21.952;2022-11-20T13:22:55;109.07;;;69.17;;
57846;SDS011;43675;50.030;21.952;2022-11-20T13:25:28;114.82;;;70.52;;
57846;SDS011;43675;50.030;21.952;2022-11-20T13:27:57;113.22;;;70.03;;
57846;SDS011;43675;50.030;21.952;2022-11-20T13:30:25;103.32;;;66.15;;
57846;SDS011;43675;50.030;21.952;2022-11-20T13:32:53;108.78;;;69.17;;
57846;SDS011;43675;50.030;21.952;2022-11-20T13:35:25;108.27;;;70.17;;
57846;SDS011;43675;50.030;21.952;2022-11-20T13:38:04;110.55;;;72.42;;
57846;SDS011;43675;50.030;21.952;2022-11-20T13:40:28;107.05;;;72.78;;
57846;SDS011;43675;50.030;21.952;2022-11-20T13:42:55;111.10;;;71.33;;
57846;SDS011;43675;50.030;21.952;2022-11-20T13:45:30;114.60;;;72.92;;
57846;SDS011;43675;50.030;21.952;2022-11-20T13:47:58;118.47;;;73.70;;
57846;SDS011;43675;50.030;21.952;2022-11-20T13:55:45;103.40;;;69.17;;
57846;SDS011;43675;50.030;21.952;2022-11-20T13:58:35;103.30;;;67.27;;
57846;SDS011;43675;50.030;21.952;2022-11-20T14:01:19;102.02;;;73.33;;
57846;SDS011;43675;50.030;21.952;2022-11-20T14:03:53;115.88;;;75.67;;
57846;SDS011;43675;50.030;21.952;2022-11-20T14:08:55;111.72;;;78.37;;
57846;SDS011;43675;50.030;21.952;2022-11-20T14:11:28;117.37;;;80.97;;
57846;SDS011;43675;50.030;21.952;2022-11-20T14:14:04;119.97;;;80.75;;
57846;SDS011;43675;50.030;21.952;2022-11-20T14:16:38;122.85;;;80.38;;
57846;SDS011;43675;50.030;21.952;2022-11-20T14:21:52;115.17;;;73.87;;
57846;SDS011;43675;50.030;21.952;2022-11-20T14:24:19;111.68;;;69.97;;
57846;SDS011;43675;50.030;21.952;2022-11-20T14:26:46;111.57;;;70.30;;
57846;SDS011;43675;50.030;21.952;2022-11-20T14:29:16;111.70;;;70.80;;
57846;SDS011;43675;50.030;21.952;2022-11-20T14:31:44;113.75;;;73.62;;
57846;SDS011;43675;50.030;21.952;2022-11-20T14:34:14;121.62;;;76.60;;
57846;SDS011;43675;50.030;21.952;2022-11-20T14:36:41;123.92;;;76.55;;
57846;SDS011;43675;50.030;21.952;2022-11-20T14:39:11;130.97;;;82.00;;
57846;SDS011;43675;50.030;21.952;2022-11-20T14:41:37;138.40;;;80.65;;
57846;SDS011;43675;50.030;21.952;2022-11-20T14:44:03;127.32;;;77.37;;
57846;SDS011;43675;50.030;21.952;2022-11-20T14:46:30;132.03;;;79.40;;
57846;SDS011;43675;50.030;21.952;2022-11-20T14:48:57;121.42;;;72.10;;
57846;SDS011;43675;50.030;21.952;2022-11-20T14:51:36;112.05;;;69.58;;
57846;SDS011;43675;50.030;21.952;2022-11-20T14:56:53;120.65;;;72.05;;
57846;SDS011;43675;50.030;21.952;2022-11-20T14:59:24;117.40;;;75.45;;
57846;SDS011;43675;50.030;21.952;2022-11-20T15:01:57;119.30;;;75.10;;
57846;SDS011;43675;50.030;21.952;2022-11-20T15:04:25;121.87;;;74.03;;
57846;SDS011;43675;50.030;21.952;2022-11-20T15:06:58;126.33;;;76.02;;
57846;SDS011;43675;50.030;21.952;2022-11-20T15:09:24;130.70;;;80.22;;
57846;SDS011;43675;50.030;21.952;2022-11-20T15:11:57;134.60;;;77.47;;
57846;SDS011;43675;50.030;21.952;2022-11-20T15:14:26;133.82;;;81.75;;
57846;SDS011;43675;50.030;21.952;2022-11-20T15:17:00;127.32;;;79.92;;
57846;SDS011;43675;50.030;21.952;2022-11-20T15:19:32;128.40;;;80.65;;
57846;SDS011;43675;50.030;21.952;2022-11-20T15:21:57;126.78;;;77.92;;
57846;SDS011;43675;50.030;21.952;2022-11-20T15:24:23;135.40;;;80.47;;
57846;SDS011;43675;50.030;21.952;2022-11-20T15:26:49;144.87;;;82.12;;
57846;SDS011;43675;50.030;21.952;2022-11-20T15:29:15;143.47;;;79.25;;
57846;SDS011;43675;50.030;21.952;2022-11-20T15:31:41;133.25;;;80.60;;
57846;SDS011;43675;50.030;21.952;2022-11-20T15:34:09;138.55;;;75.83;;